JES3104 SABE-SACO
Flight info
| Callsign | JES3104 |
|---|---|
| Flight time | N/A |
| Altitude | 36000 |
| Route | ATOVO4B ATOVO UW5 ASISA ASISA1Q |
| Aircraft | A21N/M-SDE3FGHIRWY/LB1 |
Departure
| Time | 2026-05-03 20:43 |
|---|---|
| Airport | Aeroparque Jorge Newbery (SABE) |
Arrival
| Time | N/A |
|---|---|
| Airport | Ingeniero Aeronáutico Ambrosio L.V. Taravella International Airport (SACO) |
| Time | Latitude | Longitude | Altitude | Speed | Heading |
|---|---|---|---|---|---|
| 2026-05-03 20:15 | -34.55610 | -58.41672 | 27 ft | 0 kts | 34° |
| 2026-05-03 20:29 | -34.55614 | -58.41675 | 27 ft | 2 kts | 34° |
| 2026-05-03 20:29 | -34.55626 | -58.41685 | 27 ft | 2 kts | 34° |
| 2026-05-03 20:29 | -34.55638 | -58.41695 | 27 ft | 2 kts | 34° |
| 2026-05-03 20:29 | -34.55650 | -58.41705 | 27 ft | 2 kts | 35° |
| 2026-05-03 20:30 | -34.55662 | -58.41708 | 27 ft | 1 kts | 330° |
| 2026-05-03 20:30 | -34.55670 | -58.41695 | 27 ft | 2 kts | 293° |
| 2026-05-03 20:30 | -34.55677 | -58.41680 | 27 ft | 1 kts | 306° |
| 2026-05-03 20:30 | -34.55679 | -58.41676 | 27 ft | 0 kts | 305° |
| 2026-05-03 20:34 | -34.55673 | -58.41688 | 27 ft | 3 kts | 301° |
| 2026-05-03 20:34 | -34.55651 | -58.41732 | 27 ft | 8 kts | 305° |
| 2026-05-03 20:35 | -34.55612 | -58.41803 | 27 ft | 11 kts | 296° |
| 2026-05-03 20:35 | -34.55632 | -58.41857 | 27 ft | 6 kts | 210° |
| 2026-05-03 20:35 | -34.55673 | -58.41867 | 27 ft | 6 kts | 133° |
| 2026-05-03 20:35 | -34.55697 | -58.41819 | 27 ft | 6 kts | 123° |
| 2026-05-03 20:36 | -34.55722 | -58.41772 | 27 ft | 6 kts | 123° |
| 2026-05-03 20:36 | -34.55745 | -58.41725 | 27 ft | 6 kts | 117° |
| 2026-05-03 20:36 | -34.55765 | -58.41676 | 27 ft | 6 kts | 116° |
| 2026-05-03 20:36 | -34.55785 | -58.41627 | 27 ft | 6 kts | 116° |
| 2026-05-03 20:37 | -34.55805 | -58.41579 | 27 ft | 6 kts | 117° |
| 2026-05-03 20:37 | -34.55827 | -58.41525 | 27 ft | 7 kts | 117° |
| 2026-05-03 20:37 | -34.55854 | -58.41462 | 27 ft | 9 kts | 116° |
| 2026-05-03 20:37 | -34.55885 | -58.41385 | 27 ft | 10 kts | 116° |
| 2026-05-03 20:38 | -34.55922 | -58.41301 | 27 ft | 11 kts | 120° |
| 2026-05-03 20:38 | -34.55972 | -58.41215 | 27 ft | 12 kts | 126° |
| 2026-05-03 20:38 | -34.56019 | -58.41142 | 27 ft | 11 kts | 127° |
| 2026-05-03 20:38 | -34.56068 | -58.41064 | 27 ft | 12 kts | 127° |
| 2026-05-03 20:39 | -34.56122 | -58.40977 | 27 ft | 13 kts | 126° |
| 2026-05-03 20:39 | -34.56170 | -58.40889 | 27 ft | 8 kts | 113° |
| 2026-05-03 20:39 | -34.56169 | -58.40832 | 27 ft | 5 kts | 101° |
| 2026-05-03 20:39 | -34.56192 | -58.40785 | 27 ft | 7 kts | 126° |
| 2026-05-03 20:40 | -34.56224 | -58.40728 | 27 ft | 8 kts | 123° |
| 2026-05-03 20:40 | -34.56261 | -58.40661 | 27 ft | 10 kts | 126° |
| 2026-05-03 20:40 | -34.56304 | -58.40583 | 27 ft | 11 kts | 126° |
| 2026-05-03 20:40 | -34.56364 | -58.40514 | 27 ft | 12 kts | 138° |
| 2026-05-03 20:41 | -34.56413 | -58.40462 | 27 ft | 8 kts | 138° |
| 2026-05-03 20:41 | -34.56459 | -58.40413 | 27 ft | 9 kts | 137° |
| 2026-05-03 20:41 | -34.56509 | -58.40369 | 27 ft | 8 kts | 174° |
| 2026-05-03 20:41 | -34.56552 | -58.40398 | 27 ft | 6 kts | 217° |
| 2026-05-03 20:42 | -34.56559 | -58.40444 | 27 ft | 7 kts | 303° |
| 2026-05-03 20:42 | -34.56556 | -58.40450 | 27 ft | 0 kts | 305° |
| 2026-05-03 20:42 | -34.56482 | -58.40579 | 27 ft | 54 kts | 304° |
| 2026-05-03 20:43 | -34.56120 | -58.41222 | 27 ft | 126 kts | 303° |
| 2026-05-03 20:43 | -34.55611 | -58.42137 | 191 ft | 158 kts | 304° |
| 2026-05-03 20:43 | -34.54936 | -58.43385 | 808 ft | 167 kts | 304° |
| 2026-05-03 20:43 | -34.54154 | -58.44395 | 1486 ft | 168 kts | 334° |
| 2026-05-03 20:44 | -34.53048 | -58.44447 | 2168 ft | 168 kts | 22° |
| 2026-05-03 20:44 | -34.51997 | -58.43672 | 2624 ft | 186 kts | 33° |
| 2026-05-03 20:44 | -34.50887 | -58.42759 | 3064 ft | 202 kts | 33° |
| 2026-05-03 20:44 | -34.49692 | -58.41765 | 3475 ft | 219 kts | 33° |
| 2026-05-03 20:45 | -34.48352 | -58.40675 | 3800 ft | 243 kts | 28° |
| 2026-05-03 20:45 | -34.46726 | -58.40167 | 4379 ft | 251 kts | 353° |
| 2026-05-03 20:45 | -34.45113 | -58.40944 | 5072 ft | 257 kts | 318° |
| 2026-05-03 20:45 | -34.44023 | -58.42680 | 5769 ft | 265 kts | 300° |
| 2026-05-03 20:46 | -34.43132 | -58.44648 | 6574 ft | 268 kts | 298° |
| 2026-05-03 20:46 | -34.42221 | -58.46643 | 7372 ft | 271 kts | 299° |
| 2026-05-03 20:46 | -34.41282 | -58.48605 | 8141 ft | 274 kts | 300° |
| 2026-05-03 20:46 | -34.40294 | -58.50591 | 8907 ft | 278 kts | 301° |
| 2026-05-03 20:47 | -34.39286 | -58.52571 | 9647 ft | 281 kts | 301° |
| 2026-05-03 20:47 | -34.38239 | -58.54596 | 10377 ft | 284 kts | 301° |
| 2026-05-03 20:47 | -34.37178 | -58.56630 | 10828 ft | 298 kts | 301° |
| 2026-05-03 20:47 | -34.36031 | -58.58820 | 11145 ft | 316 kts | 301° |
| 2026-05-03 20:48 | -34.34829 | -58.61104 | 11600 ft | 328 kts | 301° |
| 2026-05-03 20:48 | -34.33602 | -58.63429 | 12287 ft | 331 kts | 301° |
| 2026-05-03 20:48 | -34.32359 | -58.65781 | 13020 ft | 333 kts | 302° |
| 2026-05-03 20:48 | -34.31110 | -58.68154 | 13747 ft | 335 kts | 301° |
| 2026-05-03 20:49 | -34.29866 | -58.70513 | 14451 ft | 337 kts | 301° |
| 2026-05-03 20:49 | -34.28602 | -58.72906 | 15145 ft | 339 kts | 301° |
| 2026-05-03 20:49 | -34.27330 | -58.75310 | 15825 ft | 340 kts | 301° |
| 2026-05-03 20:49 | -34.26065 | -58.77696 | 16483 ft | 342 kts | 301° |
| 2026-05-03 20:50 | -34.24779 | -58.80119 | 17134 ft | 344 kts | 301° |
| 2026-05-03 20:50 | -34.23497 | -58.82536 | 17704 ft | 347 kts | 301° |
| 2026-05-03 20:50 | -34.22188 | -58.85005 | 18274 ft | 350 kts | 301° |
| 2026-05-03 20:50 | -34.20876 | -58.87475 | 18898 ft | 351 kts | 302° |
| 2026-05-03 20:51 | -34.19553 | -58.89964 | 19515 ft | 352 kts | 302° |
| 2026-05-03 20:51 | -34.18231 | -58.92447 | 20098 ft | 354 kts | 302° |
| 2026-05-03 20:51 | -34.16902 | -58.94938 | 20656 ft | 355 kts | 303° |
| 2026-05-03 20:51 | -34.15570 | -58.97435 | 21135 ft | 359 kts | 303° |
| 2026-05-03 20:52 | -34.14215 | -58.99972 | 21518 ft | 365 kts | 303° |
| 2026-05-03 20:52 | -34.12819 | -59.02582 | 21985 ft | 368 kts | 304° |
| 2026-05-03 20:52 | -34.11440 | -59.05157 | 22463 ft | 370 kts | 304° |
| 2026-05-03 20:52 | -34.10024 | -59.07795 | 22946 ft | 372 kts | 304° |
| 2026-05-03 20:53 | -34.08620 | -59.10410 | 23424 ft | 374 kts | 304° |
| 2026-05-03 20:53 | -34.07201 | -59.13032 | 23888 ft | 375 kts | 305° |
| 2026-05-03 20:53 | -34.05695 | -59.15558 | 24337 ft | 376 kts | 308° |
| 2026-05-03 20:53 | -34.04047 | -59.18022 | 24774 ft | 378 kts | 310° |
| 2026-05-03 20:54 | -34.02369 | -59.20438 | 25191 ft | 379 kts | 310° |
| 2026-05-03 20:54 | -33.98982 | -59.25315 | 25985 ft | 382 kts | 310° |
| 2026-05-03 20:54 | -33.97276 | -59.27771 | 26359 ft | 384 kts | 310° |
| 2026-05-03 20:55 | -33.95555 | -59.30246 | 26723 ft | 385 kts | 309° |
| 2026-05-03 20:55 | -33.93838 | -59.32716 | 27073 ft | 386 kts | 309° |
| 2026-05-03 20:55 | -33.92118 | -59.35188 | 27410 ft | 388 kts | 309° |
| 2026-05-03 20:55 | -33.90388 | -59.37674 | 27737 ft | 389 kts | 309° |
| 2026-05-03 20:56 | -33.88641 | -59.40173 | 28064 ft | 391 kts | 309° |
| 2026-05-03 20:56 | -33.86892 | -59.42662 | 28381 ft | 392 kts | 309° |
| 2026-05-03 20:56 | -33.85142 | -59.45154 | 28686 ft | 393 kts | 309° |
| 2026-05-03 20:56 | -33.83358 | -59.47703 | 28885 ft | 397 kts | 309° |
| 2026-05-03 20:57 | -33.81572 | -59.50256 | 29047 ft | 401 kts | 309° |
| 2026-05-03 20:57 | -33.79788 | -59.52808 | 29358 ft | 402 kts | 309° |
| 2026-05-03 20:57 | -33.78005 | -59.55358 | 29759 ft | 399 kts | 308° |
| 2026-05-03 20:57 | -33.76226 | -59.57902 | 30158 ft | 397 kts | 308° |
| 2026-05-03 20:58 | -33.74446 | -59.60447 | 30531 ft | 396 kts | 308° |
| 2026-05-03 20:58 | -33.72699 | -59.62943 | 30877 ft | 394 kts | 308° |
| 2026-05-03 20:58 | -33.70945 | -59.65444 | 31213 ft | 393 kts | 308° |
| 2026-05-03 20:58 | -33.69189 | -59.67950 | 31557 ft | 392 kts | 308° |
| 2026-05-03 20:59 | -33.67439 | -59.70437 | 31890 ft | 390 kts | 308° |
| 2026-05-03 20:59 | -33.65684 | -59.72926 | 32212 ft | 389 kts | 308° |
| 2026-05-03 20:59 | -33.63953 | -59.75381 | 32520 ft | 388 kts | 308° |
| 2026-05-03 20:59 | -33.62216 | -59.77842 | 32817 ft | 387 kts | 308° |
| 2026-05-03 21:00 | -33.60486 | -59.80293 | 33102 ft | 386 kts | 308° |
| 2026-05-03 21:00 | -33.59918 | -59.81097 | 33193 ft | 385 kts | 308° |
| 2026-05-03 21:00 | -33.57052 | -59.85153 | 33633 ft | 384 kts | 307° |
| 2026-05-03 21:00 | -33.55306 | -59.87624 | 33738 ft | 387 kts | 307° |
| 2026-05-03 21:01 | -33.51815 | -59.92559 | 33905 ft | 393 kts | 307° |
| 2026-05-03 21:01 | -33.48259 | -59.97579 | 34063 ft | 398 kts | 307° |
| 2026-05-03 21:02 | -33.46472 | -60.00097 | 34176 ft | 400 kts | 307° |
| 2026-05-03 21:02 | -33.44662 | -60.02646 | 34337 ft | 400 kts | 307° |
| 2026-05-03 21:02 | -33.42877 | -60.05157 | 34510 ft | 399 kts | 307° |
| 2026-05-03 21:02 | -33.41083 | -60.07679 | 34680 ft | 398 kts | 307° |
| 2026-05-03 21:03 | -33.39303 | -60.10181 | 34838 ft | 398 kts | 307° |
| 2026-05-03 21:03 | -33.37495 | -60.12720 | 34991 ft | 398 kts | 307° |
| 2026-05-03 21:03 | -33.35716 | -60.15217 | 35136 ft | 397 kts | 307° |
| 2026-05-03 21:03 | -33.33929 | -60.17723 | 35276 ft | 397 kts | 307° |
| 2026-05-03 21:04 | -33.32133 | -60.20240 | 35411 ft | 397 kts | 307° |
| 2026-05-03 21:04 | -33.30358 | -60.22726 | 35540 ft | 396 kts | 307° |
| 2026-05-03 21:04 | -33.28580 | -60.25215 | 35663 ft | 396 kts | 307° |
| 2026-05-03 21:04 | -33.26789 | -60.27719 | 35783 ft | 396 kts | 307° |
| 2026-05-03 21:05 | -33.25011 | -60.30205 | 35897 ft | 396 kts | 307° |
| 2026-05-03 21:05 | -33.23217 | -60.32711 | 36006 ft | 395 kts | 307° |
| 2026-05-03 21:05 | -33.19646 | -60.37695 | 36023 ft | 395 kts | 307° |
| 2026-05-03 21:06 | -33.16093 | -60.42646 | 36027 ft | 395 kts | 307° |
| 2026-05-03 21:06 | -33.12528 | -60.47607 | 36028 ft | 395 kts | 307° |
| 2026-05-03 21:07 | -33.08962 | -60.52562 | 36030 ft | 393 kts | 307° |
| 2026-05-03 21:07 | -33.05420 | -60.57474 | 36030 ft | 388 kts | 307° |
| 2026-05-03 21:08 | -33.01952 | -60.62283 | 36030 ft | 382 kts | 306° |
| 2026-05-03 21:08 | -32.98518 | -60.67044 | 36031 ft | 377 kts | 306° |
| 2026-05-03 21:09 | -32.95136 | -60.71740 | 36029 ft | 372 kts | 306° |
| 2026-05-03 21:09 | -32.91847 | -60.76473 | 36027 ft | 369 kts | 303° |
| 2026-05-03 21:10 | -32.88924 | -60.81478 | 36028 ft | 367 kts | 299° |
| 2026-05-03 21:10 | -32.86304 | -60.86660 | 36028 ft | 367 kts | 298° |
| 2026-05-03 21:11 | -32.83702 | -60.91867 | 36028 ft | 367 kts | 298° |
| 2026-05-03 21:11 | -32.81118 | -60.97062 | 36027 ft | 367 kts | 298° |
| 2026-05-03 21:12 | -32.78521 | -61.02294 | 36026 ft | 369 kts | 298° |
| 2026-05-03 21:12 | -32.75906 | -61.07565 | 36026 ft | 372 kts | 298° |
| 2026-05-03 21:13 | -32.73272 | -61.12865 | 36026 ft | 375 kts | 298° |
| 2026-05-03 21:13 | -32.70595 | -61.18244 | 36026 ft | 378 kts | 298° |
| 2026-05-03 21:14 | -32.67916 | -61.23620 | 36027 ft | 380 kts | 298° |
| 2026-05-03 21:14 | -32.65227 | -61.29007 | 36027 ft | 381 kts | 298° |
| 2026-05-03 21:15 | -32.62523 | -61.34417 | 36027 ft | 381 kts | 298° |
| 2026-05-03 21:15 | -32.59834 | -61.39791 | 36027 ft | 381 kts | 298° |
| 2026-05-03 21:16 | -32.57131 | -61.45186 | 36028 ft | 381 kts | 298° |
| 2026-05-03 21:16 | -32.54427 | -61.50575 | 36027 ft | 381 kts | 298° |
| 2026-05-03 21:17 | -32.52166 | -61.55076 | 36028 ft | 381 kts | 298° |
| 2026-05-03 21:17 | -32.49007 | -61.61356 | 36028 ft | 381 kts | 298° |
| 2026-05-03 21:18 | -32.46291 | -61.66750 | 36030 ft | 381 kts | 299° |
| 2026-05-03 21:18 | -32.43603 | -61.72103 | 36028 ft | 381 kts | 299° |
| 2026-05-03 21:19 | -32.40897 | -61.77470 | 36028 ft | 381 kts | 299° |
| 2026-05-03 21:19 | -32.38188 | -61.82830 | 36028 ft | 381 kts | 299° |
| 2026-05-03 21:20 | -32.35470 | -61.88194 | 36028 ft | 381 kts | 299° |
| 2026-05-03 21:20 | -32.32753 | -61.93543 | 36028 ft | 381 kts | 299° |
| 2026-05-03 21:21 | -32.30037 | -61.98879 | 36028 ft | 381 kts | 299° |
| 2026-05-03 21:21 | -32.27310 | -62.04236 | 36028 ft | 381 kts | 299° |
| 2026-05-03 21:22 | -32.24598 | -62.09556 | 36026 ft | 376 kts | 299° |
| 2026-05-03 21:22 | -32.23240 | -62.12219 | 35858 ft | 376 kts | 299° |
| 2026-05-03 21:22 | -32.21913 | -62.14819 | 35610 ft | 373 kts | 299° |
| 2026-05-03 21:23 | -32.20570 | -62.17449 | 35358 ft | 370 kts | 299° |
| 2026-05-03 21:23 | -32.19253 | -62.20025 | 35109 ft | 368 kts | 299° |
| 2026-05-03 21:23 | -32.17926 | -62.22619 | 34857 ft | 366 kts | 299° |
| 2026-05-03 21:23 | -32.16624 | -62.25162 | 34610 ft | 366 kts | 299° |
| 2026-05-03 21:24 | -32.15310 | -62.27729 | 34360 ft | 366 kts | 299° |
| 2026-05-03 21:24 | -32.13993 | -62.30301 | 34110 ft | 367 kts | 299° |
| 2026-05-03 21:24 | -32.12681 | -62.32861 | 33862 ft | 367 kts | 299° |
| 2026-05-03 21:24 | -32.11355 | -62.35449 | 33611 ft | 368 kts | 299° |
| 2026-05-03 21:25 | -32.10031 | -62.38029 | 33361 ft | 369 kts | 299° |
| 2026-05-03 21:25 | -32.08688 | -62.40645 | 33109 ft | 370 kts | 299° |
| 2026-05-03 21:25 | -32.07347 | -62.43253 | 32857 ft | 371 kts | 299° |
| 2026-05-03 21:25 | -32.06017 | -62.45839 | 32609 ft | 372 kts | 300° |
| 2026-05-03 21:26 | -32.04680 | -62.48437 | 32326 ft | 373 kts | 300° |
| 2026-05-03 21:26 | -32.03331 | -62.51055 | 31915 ft | 375 kts | 300° |
| 2026-05-03 21:26 | -32.01976 | -62.53685 | 31350 ft | 377 kts | 300° |
| 2026-05-03 21:26 | -32.00635 | -62.56285 | 30699 ft | 378 kts | 300° |
| 2026-05-03 21:27 | -31.99275 | -62.58922 | 29985 ft | 379 kts | 301° |
| 2026-05-03 21:27 | -31.97895 | -62.61595 | 29228 ft | 382 kts | 301° |
| 2026-05-03 21:27 | -31.96501 | -62.64290 | 28500 ft | 383 kts | 301° |
| 2026-05-03 21:27 | -31.95444 | -62.66334 | 28097 ft | 381 kts | 302° |
| 2026-05-03 21:28 | -31.94679 | -62.67818 | 27805 ft | 380 kts | 302° |
| 2026-05-03 21:28 | -31.92642 | -62.71767 | 26982 ft | 377 kts | 302° |
| 2026-05-03 21:28 | -31.91273 | -62.74416 | 26455 ft | 374 kts | 302° |
| 2026-05-03 21:28 | -31.89926 | -62.77017 | 25943 ft | 371 kts | 302° |
| 2026-05-03 21:29 | -31.88588 | -62.79578 | 25443 ft | 369 kts | 303° |
| 2026-05-03 21:29 | -31.87241 | -62.82148 | 24939 ft | 367 kts | 303° |
| 2026-05-03 21:29 | -31.85907 | -62.84698 | 24440 ft | 365 kts | 303° |